Burnstad, North Dakota
Current Conditions -  °F | °C
As of 5:55 PM on Monday 20 Oct 2014 (Local Time) from K7L2 Reporting Station
Clear Clear  
Wind Chill: 68°   Ceiling: Unl
Heat Index: 68°   Visibility: 10mi
Dew Point: 36°   Wind: 10mph
Humidity: 30%   Direction: 160°SSE
Pressure: 29.97"   Gusts: NA
Location:  46.2334°N, 99.6522°W
Report Text: K7L2 202255Z AUTO 16009KT 10SM CLR 20/02 A2997 RMK AO2 PWINO PNO
Loading
Personal Weather Stations






























Interactive Weather Map
Tropical Storm Tracking
New forecast layout! Learn more

10-Day Weather Forecast

Advertisements
Track Severe Weather on mobile